Time;durP1;ratioP1;P1;durP2;ratioP2;P2;SDS_P1;SDS_P2;PMS_P1;PMS_P2;Temp;Humidity;BMP_temperature;BMP_pressure;BME280_temperature;BME280_humidity;BME280_pressure;Samples;Min_cycle;Max_cycle;Signal;HPM_P1;HPM_P2
2021/12/17 00:00:26;;;;;;;17.48;9.18;;;;;;;;;;4990253;28;20034;-79
2021/12/17 00:05:20;;;;;;;17.48;9.68;;;;;;;;;;5007664;28;20038;-76
2021/12/17 00:07:46;;;;;;;17.55;9.70;;;;;;;;;;4995064;28;20027;-78
2021/12/17 00:10:17;;;;;;;19.80;10.35;;;;;;;;;;5013702;28;20030;-78
2021/12/17 00:12:43;;;;;;;19.23;9.57;;;;;;;;;;4994212;28;20022;-79
2021/12/17 00:15:09;;;;;;;16.98;9.55;;;;;;;;;;5010302;28;20039;-78
2021/12/17 00:17:39;;;;;;;23.67;9.98;;;;;;;;;;4992615;28;20046;-78
2021/12/17 00:50:00;;;;;;;13.50;6.68;;;;;;;;;;5004544;28;20041;-81
2021/12/17 00:52:28;;;;;;;12.35;7.03;;;;;;;;;;5005796;28;20019;-80
2021/12/17 00:54:54;;;;;;;15.73;7.53;;;;;;;;;;4998064;28;20014;-78
2021/12/17 00:57:28;;;;;;;14.90;6.85;;;;;;;;;;5019763;28;20030;-77
2021/12/17 00:59:55;;;;;;;13.93;7.17;;;;;;;;;;5003582;28;20026;-78
2021/12/17 01:02:27;;;;;;;13.60;6.75;;;;;;;;;;5020596;28;20250;-76
2021/12/17 01:04:54;;;;;;;17.23;8.20;;;;;;;;;;5020486;28;20065;-77
2021/12/17 01:07:22;;;;;;;14.93;8.45;;;;;;;;;;5003298;28;20041;-76
2021/12/17 01:09:48;;;;;;;18.85;9.73;;;;;;;;;;5051821;22;20057;-77
2021/12/17 01:12:15;;;;;;;18.08;9.60;;;;;;;;;;5022826;28;20102;-77
2021/12/17 01:14:41;;;;;;;17.30;10.20;;;;;;;;;;5022525;28;20033;-79
2021/12/17 01:17:08;;;;;;;20.63;10.77;;;;;;;;;;5016987;28;20042;-78
2021/12/17 01:24:38;;;;;;;25.85;12.95;;;;;;;;;;5022635;28;20026;-79
2021/12/17 01:35:31;;;;;;;;;;;;;;;;;;5031606;28;20057;-77
2021/12/17 01:39:47;;;;;;;29.77;15.30;;;;;;;;;;5033498;28;19900;-78
2021/12/17 01:43:25;;;;;;;32.58;18.42;;;;;;;;;;5029223;28;20037;-80
2021/12/17 01:45:51;;;;;;;34.95;16.88;;;;;;;;;;5029885;28;20020;-78
2021/12/17 01:48:22;;;;;;;32.97;18.30;;;;;;;;;;5034465;28;20022;-79
2021/12/17 01:56:38;;;;;;;29.70;17.00;;;;;;;;;;5030039;28;20036;-79
2021/12/17 02:02:06;;;;;;;28.52;15.00;;;;;;;;;;4986982;28;20045;-80
2021/12/17 02:04:33;;;;;;;24.90;14.10;;;;;;;;;;5024727;28;20026;-79
2021/12/17 02:07:00;;;;;;;29.33;14.77;;;;;;;;;;5027739;28;20052;-77
2021/12/17 02:10:01;;;;;;;30.63;14.48;;;;;;;;;;5034934;28;20041;-77
2021/12/17 02:13:01;;;;;;;26.05;14.15;;;;;;;;;;5028437;28;20057;-78
2021/12/17 02:20:47;;;;;;;23.52;11.77;;;;;;;;;;5029878;28;20033;-78
2021/12/17 02:28:44;;;;;;;26.30;13.38;;;;;;;;;;5016845;28;20038;-77
2021/12/17 02:29:01;;;;;;;30.55;13.95;;;;;;;;;;5004998;28;20041;-82
2021/12/17 02:31:29;;;;;;;27.17;14.48;;;;;;;;;;5009540;28;20023;-79
2021/12/17 02:33:57;;;;;;;26.65;13.70;;;;;;;;;;5004941;28;20379;-78
2021/12/17 02:36:27;;;;;;;27.67;14.82;;;;;;;;;;5002702;28;20019;-78
2021/12/17 02:38:58;;;;;;;27.10;15.05;;;;;;;;;;5004709;28;20018;-78
2021/12/17 02:47:04;;;;;;;19.95;10.43;;;;;;;;;;5002015;28;20084;-79
2021/12/17 02:49:31;;;;;;;17.80;10.40;;;;;;;;;;5010858;28;20039;-79
2021/12/17 02:51:57;;;;;;;20.10;10.35;;;;;;;;;;5007383;28;20026;-81
2021/12/17 02:54:25;;;;;;;18.80;10.15;;;;;;;;;;5004622;28;20515;-79
2021/12/17 02:56:53;;;;;;;22.92;11.27;;;;;;;;;;5005239;28;20026;-78
2021/12/17 02:59:20;;;;;;;16.13;9.18;;;;;;;;;;4971891;28;20415;-80
2021/12/17 03:01:46;;;;;;;18.60;10.13;;;;;;;;;;5005347;28;20034;-81
2021/12/17 03:04:13;;;;;;;16.67;8.98;;;;;;;;;;4988161;28;20041;-78
2021/12/17 03:06:41;;;;;;;17.77;10.07;;;;;;;;;;5003635;28;20435;-81
2021/12/17 03:09:07;;;;;;;14.90;9.35;;;;;;;;;;5005176;28;20033;-80
2021/12/17 03:11:33;;;;;;;17.55;8.90;;;;;;;;;;5005485;28;20030;-79
2021/12/17 03:13:59;;;;;;;15.85;9.80;;;;;;;;;;4992673;28;20026;-79
2021/12/17 03:16:32;;;;;;;15.55;10.02;;;;;;;;;;5009704;28;20037;-79
2021/12/17 03:24:09;;;;;;;13.65;8.88;;;;;;;;;;5007634;28;20038;-78
2021/12/17 03:26:36;;;;;;;13.25;9.10;;;;;;;;;;5005005;28;20030;-79
2021/12/17 03:29:07;;;;;;;19.00;9.85;;;;;;;;;;5004601;28;20061;-78
2021/12/17 03:31:33;;;;;;;16.08;10.07;;;;;;;;;;5011286;28;20018;-81
2021/12/17 03:34:20;;;;;;;19.10;10.20;;;;;;;;;;5008183;28;20041;-79
2021/12/17 03:36:48;;;;;;;17.35;10.32;;;;;;;;;;5008045;28;20019;-77
2021/12/17 03:39:14;;;;;;;14.05;9.32;;;;;;;;;;4997778;28;20533;-76
2021/12/17 03:41:47;;;;;;;14.15;9.40;;;;;;;;;;5012164;28;20049;-77
2021/12/17 03:44:13;;;;;;;13.45;8.30;;;;;;;;;;5015100;28;20094;-77
2021/12/17 03:46:39;;;;;;;11.77;7.65;;;;;;;;;;4998679;28;20038;-77
2021/12/17 03:49:05;;;;;;;13.27;8.13;;;;;;;;;;5012112;28;20034;-78
2021/12/17 03:51:35;;;;;;;14.80;7.32;;;;;;;;;;5011154;28;20033;-78
2021/12/17 03:54:01;;;;;;;12.80;7.53;;;;;;;;;;5010329;28;20038;-78
2021/12/17 03:56:27;;;;;;;13.60;7.38;;;;;;;;;;5009070;28;20033;-78
2021/12/17 03:58:56;;;;;;;13.68;8.30;;;;;;;;;;5010074;28;20101;-77
2021/12/17 04:01:22;;;;;;;13.18;8.30;;;;;;;;;;4993206;28;20006;-80
2021/12/17 04:03:48;;;;;;;13.20;7.07;;;;;;;;;;5012383;28;20026;-79
2021/12/17 04:06:14;;;;;;;13.23;6.25;;;;;;;;;;4996229;28;20026;-79
2021/12/17 04:08:40;;;;;;;9.93;6.47;;;;;;;;;;5016123;28;20041;-77
2021/12/17 04:11:08;;;;;;;11.52;5.20;;;;;;;;;;4999122;28;20030;-77
2021/12/17 04:13:37;;;;;;;9.63;5.50;;;;;;;;;;5018694;28;20022;-80
2021/12/17 04:16:07;;;;;;;9.10;5.07;;;;;;;;;;5018217;28;20077;-78
2021/12/17 04:18:33;;;;;;;8.95;5.13;;;;;;;;;;4995550;28;20491;-77
2021/12/17 04:21:02;;;;;;;9.73;5.20;;;;;;;;;;5012203;28;20026;-78
2021/12/17 04:23:28;;;;;;;8.68;4.45;;;;;;;;;;5016392;28;20070;-79
2021/12/17 04:25:55;;;;;;;7.95;4.57;;;;;;;;;;5015363;28;20025;-79
2021/12/17 04:28:21;;;;;;;8.63;4.75;;;;;;;;;;4992385;28;20073;-80
2021/12/17 04:30:47;;;;;;;14.00;5.65;;;;;;;;;;5015684;28;20065;-79
2021/12/17 04:33:14;;;;;;;9.27;5.13;;;;;;;;;;5017729;28;20019;-80
2021/12/17 04:35:41;;;;;;;14.05;6.15;;;;;;;;;;5017347;28;20034;-79
2021/12/17 04:38:08;;;;;;;10.38;5.85;;;;;;;;;;5001007;28;20026;-77
2021/12/17 04:40:36;;;;;;;15.85;9.07;;;;;;;;;;5019197;28;20014;-78
2021/12/17 04:43:15;;;;;;;15.80;7.47;;;;;;;;;;5019722;28;20026;-79
2021/12/17 04:45:56;;;;;;;13.95;7.50;;;;;;;;;;5020617;28;20100;-77
2021/12/17 04:59:37;;;;;;;18.58;9.70;;;;;;;;;;5003662;28;20050;-78
2021/12/17 05:02:03;;;;;;;17.38;8.88;;;;;;;;;;4988720;28;20030;-78
2021/12/17 05:04:29;;;;;;;19.77;8.85;;;;;;;;;;5009493;28;20062;-79
2021/12/17 05:06:55;;;;;;;14.38;6.63;;;;;;;;;;5010279;28;20034;-78
2021/12/17 05:09:39;;;;;;;16.23;7.28;;;;;;;;;;5008198;28;20030;-78
2021/12/17 05:20:31;;;;;;;9.77;4.90;;;;;;;;;;5015873;28;20037;-78
2021/12/17 05:22:59;;;;;;;;;;;;;;;;;;5016783;28;20022;-77
2021/12/17 05:25:29;;;;;;;11.23;6.03;;;;;;;;;;5013384;28;19910;-79
2021/12/17 05:27:59;;;;;;;13.05;6.47;;;;;;;;;;5014355;28;20018;-79
2021/12/17 05:30:25;;;;;;;15.10;6.63;;;;;;;;;;5000207;28;20035;-79
2021/12/17 05:32:51;;;;;;;13.05;5.75;;;;;;;;;;5015657;28;20045;-78
2021/12/17 05:35:17;;;;;;;11.60;6.57;;;;;;;;;;5009459;28;20034;-77
2021/12/17 05:37:43;;;;;;;14.85;7.18;;;;;;;;;;5018984;28;20018;-78
2021/12/17 05:40:10;;;;;;;15.98;7.47;;;;;;;;;;5018867;28;20026;-78
2021/12/17 05:42:36;;;;;;;15.82;7.85;;;;;;;;;;5015508;28;20061;-78
2021/12/17 05:45:09;;;;;;;16.27;8.52;;;;;;;;;;5018315;28;20039;-78
2021/12/17 05:47:35;;;;;;;17.95;7.43;;;;;;;;;;5014829;28;20007;-78
2021/12/17 05:50:01;;;;;;;15.48;8.10;;;;;;;;;;5015004;28;20039;-77
2021/12/17 05:52:27;;;;;;;16.75;6.97;;;;;;;;;;5012067;28;20037;-78
2021/12/17 05:54:53;;;;;;;16.27;8.43;;;;;;;;;;4990340;28;20030;-77
2021/12/17 05:57:19;;;;;;;17.30;8.43;;;;;;;;;;5014074;28;20041;-78
2021/12/17 05:59:46;;;;;;;17.52;8.10;;;;;;;;;;5014252;28;20117;-77
2021/12/17 06:02:14;;;;;;;16.90;8.60;;;;;;;;;;5017063;28;20010;-76
2021/12/17 06:04:40;;;;;;;16.58;8.68;;;;;;;;;;5015973;28;20023;-79
2021/12/17 06:07:06;;;;;;;17.63;8.63;;;;;;;;;;5013473;28;20044;-78
2021/12/17 06:09:32;;;;;;;17.10;9.02;;;;;;;;;;5010929;28;20044;-80
2021/12/17 06:11:58;;;;;;;16.27;8.70;;;;;;;;;;5012927;28;20049;-78
2021/12/17 06:14:24;;;;;;;18.77;8.50;;;;;;;;;;5013823;28;20033;-79
2021/12/17 06:16:50;;;;;;;16.40;9.00;;;;;;;;;;5007765;28;20031;-80
2021/12/17 06:19:19;;;;;;;14.18;8.10;;;;;;;;;;5008894;28;20037;-81
2021/12/17 06:21:46;;;;;;;17.08;8.20;;;;;;;;;;5011192;28;20007;-79
2021/12/17 06:24:12;;;;;;;18.40;9.73;;;;;;;;;;4999065;28;20069;-82
2021/12/17 06:26:38;;;;;;;16.17;7.93;;;;;;;;;;4995454;28;20034;-83
2021/12/17 06:29:04;;;;;;;17.27;8.77;;;;;;;;;;5012398;28;20018;-82
2021/12/17 06:31:30;;;;;;;17.45;8.82;;;;;;;;;;4996343;28;20018;-83
2021/12/17 06:33:56;;;;;;;21.35;9.68;;;;;;;;;;4999746;28;20221;-79
2021/12/17 06:36:22;;;;;;;17.25;8.77;;;;;;;;;;5013695;28;20037;-83
2021/12/17 06:38:48;;;;;;;21.08;8.43;;;;;;;;;;5011941;28;20023;-80
2021/12/17 06:41:14;;;;;;;16.55;8.45;;;;;;;;;;5014559;28;20034;-80
2021/12/17 06:43:42;;;;;;;18.83;8.45;;;;;;;;;;5012423;28;20027;-79
2021/12/17 06:48:46;;;;;;;17.52;9.00;;;;;;;;;;5014482;28;20094;-79
2021/12/17 06:59:21;;;;;;;20.85;10.52;;;;;;;;;;5007144;28;20011;-79
2021/12/17 07:10:14;;;;;;;21.52;9.40;;;;;;;;;;5005700;28;20519;-78
2021/12/17 07:21:08;;;;;;;29.63;11.85;;;;;;;;;;5001365;28;20125;-80
2021/12/17 07:34:06;;;;;;;31.00;10.63;;;;;;;;;;5003579;28;20450;-78
2021/12/17 07:36:55;;;;;;;24.38;11.18;;;;;;;;;;5009086;28;20030;-78
2021/12/17 07:39:21;;;;;;;22.88;9.77;;;;;;;;;;5008217;28;20006;-79
2021/12/17 07:41:47;;;;;;;20.23;9.55;;;;;;;;;;5002160;28;20033;-79
2021/12/17 07:44:13;;;;;;;21.02;8.65;;;;;;;;;;5002842;28;20027;-78
2021/12/17 07:46:39;;;;;;;17.10;7.55;;;;;;;;;;5003696;28;20098;-80
2021/12/17 07:49:05;;;;;;;14.32;6.30;;;;;;;;;;5005780;28;20034;-79
2021/12/17 07:51:31;;;;;;;15.95;5.70;;;;;;;;;;5005001;28;20055;-80
2021/12/17 07:53:58;;;;;;;10.52;4.85;;;;;;;;;;5004227;28;20027;-77
2021/12/17 07:56:25;;;;;;;11.07;4.45;;;;;;;;;;5006845;28;20037;-78
2021/12/17 07:58:51;;;;;;;8.93;3.50;;;;;;;;;;5001056;28;20108;-78
2021/12/17 08:01:17;;;;;;;7.07;2.97;;;;;;;;;;5002611;28;20022;-78
2021/12/17 08:03:44;;;;;;;8.15;3.15;;;;;;;;;;5002442;28;20029;-81
2021/12/17 08:06:10;;;;;;;6.18;2.80;;;;;;;;;;5003477;28;20120;-79
2021/12/17 08:08:37;;;;;;;6.70;3.22;;;;;;;;;;4993580;28;20030;-81
2021/12/17 08:11:04;;;;;;;5.10;2.70;;;;;;;;;;5008225;28;20053;-79
2021/12/17 08:13:33;;;;;;;5.28;2.47;;;;;;;;;;5006190;28;20027;-80
2021/12/17 08:16:31;;;;;;;6.35;2.80;;;;;;;;;;5008655;28;20019;-79
2021/12/17 08:24:47;;;;;;;7.18;3.38;;;;;;;;;;5005499;28;20218;-79
2021/12/17 08:32:39;;;;;;;6.88;3.42;;;;;;;;;;5012725;28;20180;-81
2021/12/17 08:35:05;;;;;;;6.70;3.15;;;;;;;;;;5008571;28;20079;-79
2021/12/17 08:37:32;;;;;;;7.00;3.30;;;;;;;;;;5006323;28;20460;-79
2021/12/17 08:39:58;;;;;;;10.25;3.70;;;;;;;;;;5008444;28;20023;-79
2021/12/17 08:42:24;;;;;;;8.00;3.20;;;;;;;;;;5006657;28;20434;-80
2021/12/17 08:44:50;;;;;;;8.10;3.60;;;;;;;;;;4990978;28;20027;-80
2021/12/17 08:47:16;;;;;;;7.80;3.97;;;;;;;;;;5013224;28;20030;-79
2021/12/17 08:49:43;;;;;;;8.73;3.92;;;;;;;;;;5014510;28;20030;-81
2021/12/17 08:52:09;;;;;;;15.65;6.82;;;;;;;;;;4995462;28;20042;-79
2021/12/17 08:54:36;;;;;;;15.35;7.38;;;;;;;;;;4995131;28;20081;-79
2021/12/17 08:57:02;;;;;;;14.55;7.50;;;;;;;;;;5002945;28;20023;-79
2021/12/17 08:59:29;;;;;;;15.07;7.85;;;;;;;;;;5020319;28;20037;-80
2021/12/17 09:01:55;;;;;;;17.13;8.75;;;;;;;;;;5002990;28;20035;-80
2021/12/17 09:04:21;;;;;;;14.43;8.23;;;;;;;;;;5020314;28;20090;-80
2021/12/17 09:06:47;;;;;;;15.93;9.25;;;;;;;;;;5019378;28;20022;-80
2021/12/17 09:09:18;;;;;;;18.98;9.18;;;;;;;;;;4995435;28;20038;-78
2021/12/17 09:11:44;;;;;;;17.50;11.05;;;;;;;;;;4987510;28;20096;-79
2021/12/17 09:14:10;;;;;;;35.47;20.65;;;;;;;;;;5015203;28;20061;-78
2021/12/17 09:16:36;;;;;;;32.05;17.20;;;;;;;;;;5017891;28;20037;-77
2021/12/17 09:19:03;;;;;;;27.70;14.48;;;;;;;;;;5019315;28;20034;-81
2021/12/17 09:21:30;;;;;;;22.00;13.38;;;;;;;;;;5019955;28;20018;-80
2021/12/17 09:23:56;;;;;;;20.33;13.52;;;;;;;;;;5019525;28;20035;-79
2021/12/17 09:26:22;;;;;;;18.83;12.20;;;;;;;;;;5002612;28;20018;-80
2021/12/17 09:28:49;;;;;;;18.08;11.45;;;;;;;;;;5002418;28;20045;-80
2021/12/17 09:31:15;;;;;;;21.00;12.30;;;;;;;;;;5013558;28;20053;-79
2021/12/17 09:33:49;;;;;;;20.55;12.07;;;;;;;;;;5011062;28;20061;-79
2021/12/17 09:36:16;;;;;;;23.00;13.35;;;;;;;;;;5003850;28;20026;-79
2021/12/17 09:38:42;;;;;;;21.20;13.15;;;;;;;;;;4999295;28;20061;-78
2021/12/17 09:41:08;;;;;;;24.27;14.07;;;;;;;;;;5000281;28;20464;-79
2021/12/17 09:43:36;;;;;;;20.77;12.73;;;;;;;;;;4980896;28;20480;-79
2021/12/17 09:46:04;;;;;;;21.83;13.20;;;;;;;;;;4988375;28;20041;-79
2021/12/17 09:48:30;;;;;;;25.55;13.05;;;;;;;;;;5004805;28;20107;-79
2021/12/17 09:50:57;;;;;;;22.25;12.43;;;;;;;;;;4987997;28;20030;-80
2021/12/17 09:53:23;;;;;;;20.63;11.05;;;;;;;;;;5002197;28;20387;-78
2021/12/17 09:55:50;;;;;;;18.90;10.38;;;;;;;;;;5008661;28;20038;-76
2021/12/17 09:58:16;;;;;;;19.40;11.30;;;;;;;;;;5009782;28;20093;-79
2021/12/17 10:00:42;;;;;;;22.15;10.55;;;;;;;;;;5005845;28;20046;-79
2021/12/17 10:03:08;;;;;;;19.65;12.55;;;;;;;;;;5003621;28;20439;-78
2021/12/17 10:05:36;;;;;;;22.35;13.25;;;;;;;;;;4979730;28;20031;-77
2021/12/17 10:08:04;;;;;;;25.50;14.60;;;;;;;;;;5004776;28;20026;-78
2021/12/17 10:10:37;;;;;;;24.05;13.63;;;;;;;;;;5007932;28;20037;-77
2021/12/17 10:13:13;;;;;;;27.25;15.90;;;;;;;;;;4994508;28;20006;-80
2021/12/17 10:15:40;;;;;;;27.95;15.68;;;;;;;;;;5016659;28;20164;-78
2021/12/17 10:18:06;;;;;;;29.00;15.00;;;;;;;;;;5014505;28;20057;-79
2021/12/17 10:20:33;;;;;;;24.52;14.55;;;;;;;;;;4998902;28;20475;-79
2021/12/17 10:23:01;;;;;;;23.73;14.10;;;;;;;;;;5017079;28;20026;-79
2021/12/17 10:25:28;;;;;;;25.42;14.88;;;;;;;;;;4999216;28;20026;-81
2021/12/17 10:27:56;;;;;;;30.65;17.58;;;;;;;;;;5013210;28;20066;-80
2021/12/17 10:30:22;;;;;;;37.17;19.25;;;;;;;;;;5018632;28;20042;-78
2021/12/17 10:32:49;;;;;;;33.38;19.00;;;;;;;;;;5019251;28;20019;-80
2021/12/17 10:35:17;;;;;;;32.67;19.00;;;;;;;;;;5002564;28;20034;-81
2021/12/17 10:37:43;;;;;;;34.63;19.25;;;;;;;;;;5019180;28;20014;-82
2021/12/17 10:40:17;;;;;;;39.72;19.38;;;;;;;;;;5019015;28;20014;-80
2021/12/17 10:42:59;;;;;;;33.28;18.02;;;;;;;;;;5019170;28;20017;-81
2021/12/17 10:45:27;;;;;;;32.15;17.90;;;;;;;;;;5019368;28;20034;-81
2021/12/17 10:48:47;;;;;;;30.08;17.20;;;;;;;;;;5018885;28;20032;-78
2021/12/17 10:51:20;;;;;;;32.80;17.70;;;;;;;;;;5019278;28;20026;-81
2021/12/17 10:53:55;;;;;;;32.10;18.00;;;;;;;;;;5001435;28;20038;-79
2021/12/17 10:56:22;;;;;;;30.35;17.13;;;;;;;;;;5018052;28;20022;-79
2021/12/17 10:58:54;;;;;;;30.45;17.27;;;;;;;;;;5018293;28;20034;-78
2021/12/17 11:01:28;;;;;;;30.02;16.65;;;;;;;;;;5018461;28;20018;-78
2021/12/17 11:04:03;;;;;;;28.83;15.20;;;;;;;;;;5018958;28;20026;-80
2021/12/17 11:06:41;;;;;;;25.30;14.68;;;;;;;;;;5018006;28;20341;-79
2021/12/17 11:09:07;;;;;;;24.63;13.90;;;;;;;;;;5018470;28;20072;-79
2021/12/17 11:11:33;;;;;;;25.30;12.88;;;;;;;;;;5000257;28;20038;-81
2021/12/17 11:14:00;;;;;;;23.15;12.35;;;;;;;;;;5018661;28;20085;-85
2021/12/17 11:16:27;;;;;;;30.08;13.52;;;;;;;;;;5018613;28;20033;-81
2021/12/17 11:18:53;;;;;;;20.65;11.20;;;;;;;;;;5001822;28;20523;-82
2021/12/17 11:21:20;;;;;;;23.38;12.70;;;;;;;;;;5018026;28;20053;-80
2021/12/17 11:23:46;;;;;;;21.15;11.32;;;;;;;;;;5000724;28;20019;-81
2021/12/17 11:26:12;;;;;;;18.27;8.93;;;;;;;;;;5000990;28;20070;-81
2021/12/17 11:28:38;;;;;;;18.90;9.07;;;;;;;;;;5017739;28;20023;-80
2021/12/17 11:31:05;;;;;;;16.00;7.25;;;;;;;;;;5000335;28;20053;-79
2021/12/17 11:33:31;;;;;;;13.40;7.30;;;;;;;;;;5009341;28;20034;-79
2021/12/17 11:35:57;;;;;;;14.88;7.63;;;;;;;;;;5006045;28;20033;-80
2021/12/17 11:38:46;;;;;;;13.48;8.00;;;;;;;;;;5005894;28;20101;-79
2021/12/17 11:41:16;;;;;;;15.90;8.05;;;;;;;;;;4997694;28;20018;-78
2021/12/17 11:43:52;;;;;;;16.10;7.85;;;;;;;;;;4979703;28;20182;-77
2021/12/17 11:46:28;;;;;;;15.05;8.10;;;;;;;;;;4999141;28;20516;-78
2021/12/17 11:48:56;;;;;;;13.27;7.40;;;;;;;;;;4999617;28;20022;-79
2021/12/17 11:51:25;;;;;;;15.02;8.02;;;;;;;;;;4998932;28;20086;-79
2021/12/17 11:53:58;;;;;;;15.30;8.13;;;;;;;;;;4999166;28;20435;-78
2021/12/17 11:56:43;;;;;;;23.63;10.52;;;;;;;;;;4999885;28;20019;-79
2021/12/17 11:59:11;;;;;;;;;;;;;;;;;;5000512;28;20022;-79
2021/12/17 12:01:48;;;;;;;16.42;7.22;;;;;;;;;;4982945;28;19906;-78
2021/12/17 12:04:22;;;;;;;13.82;6.85;;;;;;;;;;5009069;28;20022;-80
2021/12/17 12:07:02;;;;;;;12.10;6.70;;;;;;;;;;4981667;28;20031;-79
2021/12/17 12:09:47;;;;;;;14.43;6.68;;;;;;;;;;4999175;28;20034;-78
2021/12/17 12:12:13;;;;;;;17.67;7.80;;;;;;;;;;4998465;28;20026;-78
2021/12/17 12:14:39;;;;;;;12.43;6.57;;;;;;;;;;5002904;28;20030;-78
2021/12/17 12:17:05;;;;;;;32.22;16.00;;;;;;;;;;5005614;28;20022;-79
2021/12/17 12:19:50;;;;;;;21.80;11.90;;;;;;;;;;4987568;28;20037;-78
2021/12/17 12:22:29;;;;;;;29.13;10.95;;;;;;;;;;4986722;28;20030;-79
2021/12/17 12:25:30;;;;;;;27.50;8.77;;;;;;;;;;5008788;28;20082;-80
2021/12/17 12:27:56;;;;;;;20.10;7.57;;;;;;;;;;4943274;29;20079;-79
2021/12/17 12:30:36;;;;;;;16.90;7.07;;;;;;;;;;4990951;28;20486;-79
2021/12/17 12:33:08;;;;;;;11.48;6.88;;;;;;;;;;5010647;28;20074;-78
2021/12/17 12:35:35;;;;;;;11.85;6.47;;;;;;;;;;5012407;28;20026;-77
2021/12/17 12:38:15;;;;;;;10.95;5.95;;;;;;;;;;5008518;28;20030;-77
2021/12/17 12:40:45;;;;;;;15.10;6.88;;;;;;;;;;4999135;28;20030;-78
2021/12/17 12:43:31;;;;;;;13.15;6.53;;;;;;;;;;5013618;28;20030;-79
2021/12/17 12:45:57;;;;;;;11.18;6.20;;;;;;;;;;5003699;28;20031;-78
2021/12/17 12:48:42;;;;;;;15.13;8.65;;;;;;;;;;5004472;28;20034;-79
2021/12/17 12:51:15;;;;;;;13.48;6.57;;;;;;;;;;5004585;28;20077;-78
2021/12/17 12:53:45;;;;;;;17.08;9.50;;;;;;;;;;5004412;28;20070;-76
2021/12/17 12:56:17;;;;;;;11.25;7.00;;;;;;;;;;5001065;28;20019;-78
2021/12/17 12:58:46;;;;;;;9.73;5.97;;;;;;;;;;4998779;28;20098;-77
2021/12/17 13:01:15;;;;;;;11.60;6.68;;;;;;;;;;5002276;28;20086;-77
2021/12/17 13:03:41;;;;;;;15.10;8.85;;;;;;;;;;4999633;28;20426;-77
2021/12/17 13:06:15;;;;;;;19.10;11.25;;;;;;;;;;5005432;28;20037;-78
2021/12/17 13:08:41;;;;;;;18.67;10.88;;;;;;;;;;5000075;28;20023;-77
2021/12/17 13:11:07;;;;;;;20.30;11.32;;;;;;;;;;5004303;28;20038;-79
2021/12/17 13:13:56;;;;;;;18.65;12.05;;;;;;;;;;5007359;28;20022;-79
2021/12/17 13:22:01;;;;;;;31.48;16.35;;;;;;;;;;5007887;28;20049;-80
2021/12/17 13:24:29;;;;;;;29.80;15.32;;;;;;;;;;5008246;28;20025;-80
2021/12/17 13:26:56;;;;;;;31.70;16.42;;;;;;;;;;5010132;28;20026;-79
2021/12/17 13:29:24;;;;;;;33.28;17.30;;;;;;;;;;5008239;28;20061;-78
2021/12/17 13:31:53;;;;;;;25.95;13.07;;;;;;;;;;5011576;28;20018;-78
2021/12/17 13:34:21;;;;;;;27.05;13.18;;;;;;;;;;4995082;28;20026;-79
2021/12/17 13:36:52;;;;;;;31.50;14.75;;;;;;;;;;5015288;28;20502;-77
2021/12/17 13:39:18;;;;;;;45.80;25.15;;;;;;;;;;5015444;28;20030;-76
2021/12/17 13:41:45;;;;;;;40.90;21.05;;;;;;;;;;5019419;28;20014;-75
2021/12/17 13:44:30;;;;;;;35.17;17.63;;;;;;;;;;5002206;28;20042;-76
2021/12/17 13:47:08;;;;;;;28.83;14.07;;;;;;;;;;5000195;28;20030;-79
2021/12/17 13:49:34;;;;;;;30.15;15.20;;;;;;;;;;5012399;28;20030;-80
2021/12/17 13:52:00;;;;;;;24.92;13.38;;;;;;;;;;5012265;28;20022;-82
2021/12/17 13:54:26;;;;;;;28.50;13.98;;;;;;;;;;5016654;28;20017;-75
2021/12/17 13:57:00;;;;;;;27.23;12.90;;;;;;;;;;5018183;28;20070;-79
2021/12/17 13:59:33;;;;;;;26.55;11.90;;;;;;;;;;5001574;28;20022;-78
2021/12/17 14:02:06;;;;;;;24.27;12.60;;;;;;;;;;5019058;28;20097;-75
2021/12/17 14:04:32;;;;;;;26.30;14.50;;;;;;;;;;5002610;28;20025;-78
2021/12/17 14:07:03;;;;;;;21.50;11.65;;;;;;;;;;5019002;28;20030;-76
2021/12/17 14:09:29;;;;;;;19.20;9.90;;;;;;;;;;5016206;28;20057;-76
2021/12/17 14:11:58;;;;;;;19.15;10.23;;;;;;;;;;5012629;28;20110;-77
2021/12/17 14:14:25;;;;;;;18.00;9.65;;;;;;;;;;5007356;28;20018;-78
2021/12/17 14:16:57;;;;;;;16.35;9.13;;;;;;;;;;4990632;28;20077;-79
2021/12/17 14:19:41;;;;;;;18.27;9.82;;;;;;;;;;5008090;28;20037;-79
2021/12/17 14:22:26;;;;;;;16.20;8.75;;;;;;;;;;5005856;28;20033;-79
2021/12/17 14:24:52;;;;;;;14.05;8.07;;;;;;;;;;5008527;28;20633;-77
2021/12/17 14:27:18;;;;;;;13.77;8.57;;;;;;;;;;5028313;28;20037;-78
2021/12/17 14:29:44;;;;;;;16.83;8.07;;;;;;;;;;5011986;28;20044;-77
2021/12/17 14:32:20;;;;;;;15.93;9.27;;;;;;;;;;5016203;28;20026;-78
2021/12/17 14:34:47;;;;;;;15.98;8.80;;;;;;;;;;5013596;28;20084;-79
2021/12/17 14:37:20;;;;;;;14.68;8.65;;;;;;;;;;5028636;28;20045;-81
2021/12/17 14:39:48;;;;;;;18.95;10.90;;;;;;;;;;5028488;28;20037;-79
2021/12/17 14:42:28;;;;;;;18.58;10.43;;;;;;;;;;5028662;28;20094;-76
2021/12/17 14:44:58;;;;;;;16.23;9.60;;;;;;;;;;5026442;28;20082;-77
2021/12/17 14:47:34;;;;;;;17.80;9.55;;;;;;;;;;5026976;28;20036;-78
2021/12/17 15:01:09;;;;;;;16.00;9.80;;;;;;;;;;5031554;28;20050;-79
2021/12/17 15:03:42;;;;;;;13.82;8.20;;;;;;;;;;5026320;28;20022;-80
2021/12/17 15:06:12;;;;;;;11.65;6.15;;;;;;;;;;5007429;28;20034;-81
2021/12/17 15:08:38;;;;;;;12.20;6.55;;;;;;;;;;5011495;28;20045;-77
2021/12/17 15:11:11;;;;;;;6.00;4.10;;;;;;;;;;5004933;28;20041;-79
2021/12/17 15:13:37;;;;;;;8.50;4.07;;;;;;;;;;5028752;28;20048;-77
2021/12/17 15:16:03;;;;;;;6.15;3.83;;;;;;;;;;5022431;28;20033;-77
2021/12/17 15:18:29;;;;;;;4.53;3.15;;;;;;;;;;5022950;28;20053;-78
2021/12/17 15:20:56;;;;;;;7.00;3.50;;;;;;;;;;5023342;28;20029;-80
2021/12/17 15:23:23;;;;;;;4.90;3.00;;;;;;;;;;5025002;28;20030;-78
2021/12/17 15:25:50;;;;;;;15.23;8.00;;;;;;;;;;5023059;28;20032;-77
2021/12/17 15:28:18;;;;;;;6.20;3.03;;;;;;;;;;5008644;28;20094;-78
2021/12/17 15:30:46;;;;;;;8.20;3.20;;;;;;;;;;5011289;28;20048;-80
2021/12/17 15:33:12;;;;;;;7.40;3.60;;;;;;;;;;5019256;28;20152;-80
2021/12/17 15:35:39;;;;;;;5.38;3.10;;;;;;;;;;5019152;28;20145;-80
2021/12/17 15:38:08;;;;;;;9.05;4.40;;;;;;;;;;5006929;28;20033;-77
2021/12/17 15:40:35;;;;;;;6.10;3.58;;;;;;;;;;5032757;28;20028;-79
2021/12/17 15:43:04;;;;;;;7.38;3.60;;;;;;;;;;5039474;28;20060;-76
2021/12/17 15:45:34;;;;;;;11.63;3.60;;;;;;;;;;5055468;28;20034;-76
2021/12/17 15:48:00;;;;;;;6.07;2.75;;;;;;;;;;5019011;28;20057;-76
2021/12/17 15:50:26;;;;;;;6.03;3.08;;;;;;;;;;5036297;28;20101;-76
2021/12/17 15:52:52;;;;;;;6.75;3.63;;;;;;;;;;5036153;28;20030;-76
2021/12/17 15:55:21;;;;;;;4.78;3.00;;;;;;;;;;5019070;28;20057;-75
2021/12/17 15:57:47;;;;;;;4.90;2.97;;;;;;;;;;5019372;28;20042;-77
2021/12/17 16:00:14;;;;;;;3.20;2.22;;;;;;;;;;5036393;28;20033;-76
2021/12/17 16:02:42;;;;;;;3.70;2.20;;;;;;;;;;5019256;28;20098;-77
2021/12/17 16:05:09;;;;;;;5.93;2.67;;;;;;;;;;5028400;28;20098;-80
2021/12/17 16:07:36;;;;;;;3.20;2.20;;;;;;;;;;5019894;28;20032;-79
2021/12/17 16:18:15;;;;;;;2.97;2.47;;;;;;;;;;5021957;28;20107;-79
2021/12/17 16:21:02;;;;;;;6.60;3.60;;;;;;;;;;5025269;28;20033;-77
2021/12/17 16:23:32;;;;;;;40.08;24.85;;;;;;;;;;5030527;28;20029;-79
2021/12/17 16:25:59;;;;;;;5.53;4.10;;;;;;;;;;5029231;28;20024;-79
2021/12/17 16:28:26;;;;;;;3.67;2.80;;;;;;;;;;5030307;28;20034;-77
2021/12/17 16:30:52;;;;;;;6.47;3.42;;;;;;;;;;5029800;28;20021;-79
2021/12/17 16:33:18;;;;;;;5.60;4.03;;;;;;;;;;5028711;28;20041;-77
2021/12/17 16:35:44;;;;;;;6.68;4.50;;;;;;;;;;5028620;28;20021;-77
2021/12/17 16:38:10;;;;;;;8.57;5.10;;;;;;;;;;5027000;28;20101;-77
2021/12/17 16:40:38;;;;;;;10.38;6.18;;;;;;;;;;5025862;28;20061;-78
2021/12/17 16:43:05;;;;;;;14.75;7.50;;;;;;;;;;5004630;28;20492;-79
2021/12/17 16:45:34;;;;;;;13.30;8.55;;;;;;;;;;5027279;28;20026;-77
2021/12/17 16:48:04;;;;;;;12.75;8.45;;;;;;;;;;5013675;28;20025;-77
2021/12/17 16:50:31;;;;;;;14.40;10.13;;;;;;;;;;5031785;28;20100;-78
2021/12/17 16:52:58;;;;;;;16.27;10.98;;;;;;;;;;5023604;28;20078;-80
2021/12/17 16:55:24;;;;;;;20.30;12.00;;;;;;;;;;5022729;28;20022;-78
2021/12/17 16:57:50;;;;;;;28.38;16.35;;;;;;;;;;5025795;28;20072;-77
2021/12/17 17:00:16;;;;;;;24.92;14.32;;;;;;;;;;5026170;28;20037;-78
2021/12/17 17:02:42;;;;;;;29.42;16.08;;;;;;;;;;5026023;28;20053;-79
2021/12/17 17:05:09;;;;;;;28.48;16.42;;;;;;;;;;5027779;28;20032;-82
2021/12/17 17:07:35;;;;;;;30.85;16.80;;;;;;;;;;5023370;28;20029;-79
2021/12/17 17:10:01;;;;;;;27.55;16.35;;;;;;;;;;5022029;28;20057;-81
2021/12/17 17:12:29;;;;;;;29.35;16.33;;;;;;;;;;5024837;28;20026;-80
2021/12/17 17:14:55;;;;;;;31.17;17.42;;;;;;;;;;5026540;28;20024;-78
2021/12/17 17:17:21;;;;;;;28.50;17.27;;;;;;;;;;5005394;28;20030;-79
2021/12/17 17:19:47;;;;;;;29.08;16.95;;;;;;;;;;5003531;28;20084;-79
2021/12/17 17:22:15;;;;;;;27.23;18.08;;;;;;;;;;5022313;28;20030;-79
2021/12/17 17:24:41;;;;;;;39.58;20.58;;;;;;;;;;5021466;28;20022;-79
2021/12/17 17:27:07;;;;;;;37.63;20.05;;;;;;;;;;5022539;28;20033;-79
2021/12/17 17:29:33;;;;;;;37.17;20.52;;;;;;;;;;5007260;28;20040;-79